Time;durP1;ratioP1;P1;durP2;ratioP2;P2;SDS_P1;SDS_P2;PMS_P1;PMS_P2;Temp;Humidity;BMP_temperature;BMP_pressure;BME280_temperature;BME280_humidity;BME280_pressure;Samples;Min_cycle;Max_cycle;Signal;HPM_P1;HPM_P2
2021/07/17 00:01:29;;;;;;;2.80;2.10;;;;;;;19.43;68.62;101497.69;5070650;28;20741;-68
2021/07/17 00:03:57;;;;;;;3.53;2.27;;;;;;;19.40;68.25;101498.84;5086753;28;20189;-68
2021/07/17 00:06:40;;;;;;;2.30;2.10;;;;;;;19.36;68.73;101493.84;5078596;28;20204;-68
2021/07/17 00:09:08;;;;;;;2.80;2.00;;;;;;;19.32;68.43;101501.44;5082260;28;20208;-68
2021/07/17 00:11:36;;;;;;;6.07;2.40;;;;;;;19.29;68.30;101490.81;5081191;28;20197;-68
2021/07/17 00:14:04;;;;;;;5.53;2.20;;;;;;;19.19;68.64;101484.47;5073814;28;20745;-67
2021/07/17 00:16:34;;;;;;;4.47;2.17;;;;;;;19.17;68.85;101487.34;5083176;28;20195;-68
2021/07/17 00:19:04;;;;;;;4.80;2.43;;;;;;;19.21;68.45;101493.38;5079596;28;20197;-67
2021/07/17 00:21:32;;;;;;;3.10;2.47;;;;;;;19.19;68.73;101492.66;5071250;28;20252;-67
2021/07/17 00:24:01;;;;;;;4.60;2.17;;;;;;;19.17;68.21;101491.94;5079045;28;20185;-68
2021/07/17 00:26:29;;;;;;;3.93;2.70;;;;;;;19.17;67.89;101494.66;5081074;28;20205;-67
2021/07/17 00:28:57;;;;;;;5.53;1.97;;;;;;;19.14;68.09;101490.34;5072406;28;20586;-67
2021/07/17 00:31:25;;;;;;;3.17;2.27;;;;;;;19.15;68.54;101494.78;5083570;28;20207;-68
2021/07/17 00:33:55;;;;;;;2.80;2.10;;;;;;;19.15;67.96;101504.84;5077150;28;20205;-68
2021/07/17 00:36:23;;;;;;;2.10;1.90;;;;;;;19.14;67.96;101494.94;5079952;28;20251;-68
2021/07/17 00:38:51;;;;;;;3.03;2.17;;;;;;;19.00;68.45;101477.16;5080216;28;20672;-68
2021/07/17 00:41:19;;;;;;;2.40;2.20;;;;;;;19.03;68.91;101495.06;5074338;28;20186;-67
2021/07/17 00:43:48;;;;;;;4.67;2.30;;;;;;;19.00;68.98;101495.34;5070023;28;20197;-68
2021/07/17 00:46:16;;;;;;;2.10;1.90;;;;;;;18.77;69.27;101462.06;5084952;28;20543;-67
2021/07/17 00:48:44;;;;;;;4.53;2.07;;;;;;;18.90;69.03;101500.75;5083753;28;20219;-68
2021/07/17 00:51:16;;;;;;;4.70;2.30;;;;;;;18.85;69.24;101494.88;5080326;28;20220;-67
2021/07/17 00:53:44;;;;;;;5.17;2.30;;;;;;;18.80;69.70;101500.75;5084064;28;20582;-68
2021/07/17 00:56:15;;;;;;;2.50;2.03;;;;;;;18.78;69.57;101502.75;5082580;28;20227;-67
2021/07/17 00:58:45;;;;;;;4.27;2.30;;;;;;;18.76;68.90;101498.44;5077787;28;20276;-68
2021/07/17 01:01:14;;;;;;;3.13;2.23;;;;;;;18.73;69.58;101498.72;5092351;28;20234;-68
2021/07/17 01:03:43;;;;;;;3.73;2.13;;;;;;;18.71;69.33;101501.56;5073961;28;20197;-68
2021/07/17 01:06:14;;;;;;;3.10;1.90;;;;;;;18.70;69.35;101499.84;5081163;28;20196;-67
2021/07/17 01:08:42;;;;;;;3.50;2.40;;;;;;;18.72;69.13;101502.44;5088927;28;20271;-67
2021/07/17 01:11:10;;;;;;;4.20;2.00;;;;;;;18.48;68.86;101461.94;5086150;28;20215;-67
2021/07/17 01:13:38;;;;;;;2.70;2.03;;;;;;;18.66;69.52;101498.38;5085148;28;20194;-68
2021/07/17 01:16:07;;;;;;;7.33;2.20;;;;;;;18.51;69.32;101473.38;5076489;28;20553;-67
2021/07/17 01:18:35;;;;;;;4.00;2.00;;;;;;;18.63;69.02;101493.22;5073726;28;20722;-69
2021/07/17 01:21:04;;;;;;;3.90;2.40;;;;;;;18.55;68.93;101485.72;5079307;28;20237;-67
2021/07/17 01:23:33;;;;;;;5.73;2.20;;;;;;;18.60;68.85;101490.75;5079784;28;20209;-68
2021/07/17 01:26:01;;;;;;;4.23;2.47;;;;;;;18.54;69.59;101485.84;5081647;28;20197;-67
2021/07/17 01:28:29;;;;;;;3.00;2.20;;;;;;;18.48;69.54;101483.69;5078741;28;20198;-67
2021/07/17 01:30:58;;;;;;;3.33;2.20;;;;;;;18.44;69.25;101484.97;5086052;28;20556;-67
2021/07/17 01:33:27;;;;;;;3.47;2.20;;;;;;;18.45;69.58;101492.13;5073004;28;20228;-67
2021/07/17 01:35:55;;;;;;;2.97;2.20;;;;;;;18.42;69.45;101492.41;5072931;28;20209;-70
2021/07/17 01:38:23;;;;;;;4.33;2.47;;;;;;;18.42;69.31;101489.69;5074381;28;20197;-67
2021/07/17 01:40:53;;;;;;;2.57;2.37;;;;;;;18.41;69.25;101487.97;5072795;28;20225;-68
2021/07/17 01:43:21;;;;;;;2.60;2.30;;;;;;;18.40;69.39;101486.25;5087167;28;20280;-70
2021/07/17 01:45:49;;;;;;;2.40;2.20;;;;;;;18.38;68.73;101485.50;5084962;28;20564;-70
2021/07/17 01:48:17;;;;;;;4.17;2.50;;;;;;;18.37;69.14;101492.81;5073747;28;20319;-67
2021/07/17 01:50:45;;;;;;;4.07;2.30;;;;;;;18.37;68.63;101489.19;5082817;28;20593;-67
2021/07/17 01:53:15;;;;;;;2.87;2.03;;;;;;;18.33;69.05;101494.06;5084299;28;20575;-67
2021/07/17 01:55:43;;;;;;;2.33;2.13;;;;;;;18.33;69.15;101490.47;5080727;28;20232;-67
2021/07/17 01:58:13;;;;;;;4.43;2.10;;;;;;;18.33;68.73;101490.47;5087733;28;20204;-68
2021/07/17 02:00:41;;;;;;;3.73;2.30;;;;;;;18.31;68.78;101485.19;5071136;28;20205;-67
2021/07/17 02:03:11;;;;;;;4.20;2.20;;;;;;;18.28;69.24;101486.31;5075944;28;20197;-68
2021/07/17 02:05:40;;;;;;;3.00;2.13;;;;;;;18.17;69.11;101459.22;5087359;28;20673;-67
2021/07/17 02:08:12;;;;;;;4.63;2.40;;;;;;;18.22;68.85;101472.41;5090498;28;20197;-68
2021/07/17 02:10:40;;;;;;;3.23;2.10;;;;;;;18.24;69.00;101487.59;5076367;28;20653;-68
2021/07/17 02:13:13;;;;;;;7.40;2.20;;;;;;;18.22;68.98;101484.13;5090495;28;20193;-69
2021/07/17 02:15:44;;;;;;;2.37;1.90;;;;;;;18.15;69.48;101476.66;5085262;28;20252;-68
2021/07/17 02:18:13;;;;;;;2.77;2.13;;;;;;;18.17;68.84;101486.41;5078795;28;20197;-68
2021/07/17 02:20:41;;;;;;;3.13;2.00;;;;;;;18.16;68.87;101489.25;5084274;28;20712;-67
2021/07/17 02:23:10;;;;;;;2.23;2.03;;;;;;;18.14;69.25;101496.69;5072093;28;20202;-67
2021/07/17 02:25:38;;;;;;;4.73;1.93;;;;;;;18.10;69.41;101484.38;5080228;28;20197;-67
2021/07/17 02:28:06;;;;;;;3.10;1.90;;;;;;;18.07;69.51;101493.66;5080075;28;20204;-67
2021/07/17 02:30:36;;;;;;;5.13;2.07;;;;;;;18.06;69.09;101486.50;5083835;28;20200;-68
2021/07/17 02:33:04;;;;;;;2.30;2.00;;;;;;;18.00;69.67;101489.72;5083092;28;20211;-67
2021/07/17 02:35:32;;;;;;;3.50;1.90;;;;;;;17.95;69.67;101486.56;5079482;28;20225;-67
2021/07/17 02:38:00;;;;;;;2.23;2.00;;;;;;;17.92;70.01;101486.81;5081742;28;20204;-67
2021/07/17 02:40:29;;;;;;;5.53;2.40;;;;;;;17.96;69.75;101485.56;5077979;28;20220;-68
2021/07/17 02:42:57;;;;;;;2.43;2.20;;;;;;;17.95;70.10;101476.53;5075268;28;20204;-68
2021/07/17 02:45:25;;;;;;;5.23;2.40;;;;;;;17.95;70.15;101475.69;5084435;28;20193;-68
2021/07/17 02:47:54;;;;;;;4.13;1.93;;;;;;;18.02;70.47;101478.72;5079001;28;20631;-68
2021/07/17 02:50:23;;;;;;;2.90;2.30;;;;;;;18.17;70.28;101470.09;5078645;28;20203;-68
2021/07/17 02:52:52;;;;;;;3.83;2.50;;;;;;;18.52;69.81;101476.97;5077482;28;20242;-68
2021/07/17 02:55:21;;;;;;;2.17;1.93;;;;;;;18.87;69.77;101477.41;5075790;28;20225;-71
2021/07/17 02:57:49;;;;;;;3.30;2.07;;;;;;;19.27;69.48;101473.72;5072551;28;20196;-67
2021/07/17 03:00:17;;;;;;;4.70;2.23;;;;;;;19.67;69.69;101473.63;5078183;28;20197;-70
2021/07/17 03:02:45;;;;;;;4.67;2.00;;;;;;;20.05;68.48;101471.84;5072075;28;20580;-70
2021/07/17 03:05:15;;;;;;;3.33;1.90;;;;;;;20.28;67.59;101464.16;5088373;28;20564;-70
2021/07/17 03:07:43;;;;;;;1.80;1.70;;;;;;;20.50;66.88;101458.34;5083611;28;20575;-67
2021/07/17 03:10:12;;;;;;;3.47;2.00;;;;;;;20.54;66.56;101453.47;5074187;28;20207;-70
2021/07/17 03:12:40;;;;;;;2.60;1.90;;;;;;;20.59;66.49;101438.34;5083504;28;20196;-69
2021/07/17 03:15:09;;;;;;;3.73;2.30;;;;;;;20.84;66.69;101458.63;5085157;28;20619;-69
2021/07/17 03:17:37;;;;;;;6.77;1.80;;;;;;;20.82;65.79;101437.94;5086929;28;20254;-70
2021/07/17 03:20:07;;;;;;;4.60;2.30;;;;;;;20.91;65.77;101453.41;5090333;28;20243;-71
2021/07/17 03:22:36;;;;;;;4.37;1.90;;;;;;;20.68;65.81;101429.25;5079858;28;20225;-71
2021/07/17 03:25:08;;;;;;;7.03;1.83;;;;;;;20.72;65.56;101455.22;5085697;28;20726;-71
2021/07/17 03:27:37;;;;;;;2.63;2.00;;;;;;;20.60;65.88;101451.00;5086456;28;20208;-71
2021/07/17 03:30:06;;;;;;;2.23;1.90;;;;;;;20.42;66.45;101450.06;5082242;28;20626;-72
2021/07/17 03:32:35;;;;;;;3.30;1.77;;;;;;;20.34;66.97;101444.47;5089864;28;20664;-71
2021/07/17 03:35:04;;;;;;;4.43;1.90;;;;;;;20.22;66.88;101434.75;5081387;28;20624;-71
2021/07/17 03:37:32;;;;;;;5.10;2.00;;;;;;;20.22;67.57;101441.06;5077852;28;20676;-71
2021/07/17 03:40:02;;;;;;;2.43;2.00;;;;;;;20.22;67.84;101429.31;5084253;28;20188;-71
2021/07/17 03:42:30;;;;;;;4.13;1.73;;;;;;;20.22;68.41;101432.91;5078982;28;20368;-71
2021/07/17 03:44:58;;;;;;;3.00;1.90;;;;;;;20.22;68.63;101441.06;5084182;28;20220;-71
2021/07/17 03:47:27;;;;;;;2.53;2.10;;;;;;;20.33;68.50;101443.59;5081672;28;20231;-71
2021/07/17 03:49:55;;;;;;;5.00;2.30;;;;;;;20.36;68.01;101437.00;5084015;28;20657;-70
2021/07/17 03:52:23;;;;;;;2.27;1.90;;;;;;;20.43;68.22;101440.84;5083373;28;20204;-71
2021/07/17 03:54:51;;;;;;;3.23;2.13;;;;;;;20.48;68.94;101424.88;5087230;28;20224;-71
2021/07/17 03:57:20;;;;;;;4.57;1.90;;;;;;;20.46;69.03;101425.03;5084655;28;20209;-71
2021/07/17 03:59:49;;;;;;;3.83;1.90;;;;;;;20.51;68.83;101431.91;5085967;28;20204;-71
2021/07/17 04:02:17;;;;;;;5.43;2.13;;;;;;;20.48;69.84;101429.50;5082158;28;20683;-71
2021/07/17 04:04:47;;;;;;;2.33;2.00;;;;;;;20.35;69.57;101418.91;5080170;28;20201;-71
2021/07/17 04:07:16;;;;;;;4.53;1.93;;;;;;;20.26;70.02;101417.09;5087112;28;20275;-68
2021/07/17 04:09:44;;;;;;;5.57;2.37;;;;;;;20.26;70.03;101425.25;5083782;28;20216;-68
2021/07/17 04:12:12;;;;;;;2.80;2.20;;;;;;;20.33;70.95;101434.56;5075692;28;20782;-71
2021/07/17 04:14:42;;;;;;;2.13;1.93;;;;;;;20.17;70.70;101403.31;5084439;28;20201;-67
2021/07/17 04:17:10;;;;;;;3.27;1.97;;;;;;;20.43;71.29;101430.81;5084781;28;20231;-67
2021/07/17 04:19:39;;;;;;;5.20;2.30;;;;;;;20.52;70.90;101434.53;5084379;28;20768;-67
2021/07/17 04:22:11;;;;;;;4.93;2.37;;;;;;;20.60;72.03;101429.16;5089010;28;20197;-71
2021/07/17 04:24:39;;;;;;;4.03;2.00;;;;;;;20.76;72.03;101436.66;5078964;28;20657;-67
2021/07/17 04:27:08;;;;;;;5.33;2.00;;;;;;;20.86;71.73;101428.44;5078891;28;20207;-67
2021/07/17 04:29:36;;;;;;;6.77;1.97;;;;;;;20.76;71.53;101402.03;5089332;28;20216;-67
2021/07/17 04:32:06;;;;;;;3.87;1.97;;;;;;;21.19;70.89;101427.75;5079308;28;20206;-71
2021/07/17 04:34:35;;;;;;;3.27;2.00;;;;;;;21.33;70.12;101421.75;5080972;28;20204;-71
2021/07/17 04:37:04;;;;;;;3.40;2.40;;;;;;;21.50;70.17;101422.75;5082761;28;20627;-71
2021/07/17 04:39:32;;;;;;;4.77;2.20;;;;;;;21.70;68.17;101417.94;5086064;28;20228;-71
2021/07/17 04:42:01;;;;;;;3.23;2.10;;;;;;;21.81;68.32;101420.44;5084863;28;20272;-71
2021/07/17 04:44:30;;;;;;;7.27;2.00;;;;;;;21.95;67.27;101428.03;5077916;28;20205;-71
2021/07/17 04:46:58;;;;;;;5.20;2.03;;;;;;;22.00;67.09;101412.00;5084301;28;20535;-71
2021/07/17 04:49:28;;;;;;;4.40;2.40;;;;;;;22.12;65.57;101419.97;5089223;28;21096;-67
2021/07/17 04:51:56;;;;;;;5.17;2.40;;;;;;;22.22;65.99;101423.44;5089892;28;20719;-71
2021/07/17 04:54:25;;;;;;;4.23;2.00;;;;;;;22.29;65.21;101424.50;5084094;28;20225;-68
2021/07/17 04:56:53;;;;;;;3.63;2.13;;;;;;;22.36;65.50;101414.63;5091310;28;20223;-67
2021/07/17 04:59:21;;;;;;;3.13;1.93;;;;;;;22.39;66.17;101414.31;5092022;28;20197;-70
2021/07/17 05:01:50;;;;;;;2.13;1.80;;;;;;;22.40;66.63;101413.28;5090053;28;20201;-71
2021/07/17 05:04:18;;;;;;;4.13;1.90;;;;;;;22.41;67.26;101404.03;5091311;28;20220;-67
2021/07/17 05:06:47;;;;;;;5.30;2.03;;;;;;;22.46;67.59;101401.66;5090999;28;20193;-68
2021/07/17 05:09:15;;;;;;;3.87;2.30;;;;;;;22.70;66.73;101400.03;5088048;28;20204;-67
2021/07/17 05:11:44;;;;;;;4.87;2.40;;;;;;;22.88;66.20;101403.53;5090497;28;20741;-67
2021/07/17 05:14:12;;;;;;;4.10;2.53;;;;;;;22.91;66.65;101395.81;5090618;28;20654;-71
2021/07/17 05:16:40;;;;;;;3.70;2.20;;;;;;;23.14;66.08;101401.53;5088626;28;20216;-71
2021/07/17 05:19:08;;;;;;;4.80;2.10;;;;;;;23.19;65.92;101398.25;5086047;28;20189;-68
2021/07/17 05:21:37;;;;;;;5.27;2.57;;;;;;;23.03;66.44;101409.22;5088166;28;20669;-68
2021/07/17 05:24:07;;;;;;;4.47;2.10;;;;;;;23.33;65.95;101402.22;5087994;28;20661;-71
2021/07/17 05:26:35;;;;;;;5.80;2.47;;;;;;;23.48;65.08;101395.03;5082256;28;20212;-71
2021/07/17 05:29:03;;;;;;;2.97;2.13;;;;;;;23.76;64.41;101396.41;5084219;28;20585;-71
2021/07/17 05:31:32;;;;;;;4.03;2.13;;;;;;;24.00;64.04;101408.38;5089883;28;20205;-67
2021/07/17 05:34:00;;;;;;;2.10;1.90;;;;;;;24.18;62.81;101414.47;5083601;28;20669;-71
2021/07/17 05:36:28;;;;;;;7.20;2.30;;;;;;;24.26;63.21;101416.34;5085051;28;20646;-71
2021/07/17 05:38:56;;;;;;;2.73;1.93;;;;;;;24.20;62.65;101406.94;5079740;28;20272;-71
2021/07/17 05:41:26;;;;;;;4.73;2.10;;;;;;;24.41;62.31;101398.97;5083236;28;20205;-71
2021/07/17 05:43:54;;;;;;;6.47;2.47;;;;;;;24.61;62.00;101404.91;5084663;28;20203;-71
2021/07/17 05:46:22;;;;;;;6.37;2.37;;;;;;;24.95;60.59;101400.94;5082968;28;20220;-70
2021/07/17 05:48:50;;;;;;;3.47;2.40;;;;;;;24.92;59.89;101401.31;5086497;28;20257;-71
2021/07/17 05:51:18;;;;;;;3.57;1.97;;;;;;;25.27;59.16;101388.88;5089311;28;20215;-71
2021/07/17 05:53:46;;;;;;;2.00;1.80;;;;;;;25.53;58.01;101392.09;5088747;28;20216;-71
2021/07/17 05:56:15;;;;;;;6.43;2.65;;;;;;;25.77;57.54;101393.81;5088248;28;20203;-70
2021/07/17 05:58:44;;;;;;;2.40;2.20;;;;;;;26.07;57.05;101385.56;5088301;28;20207;-71
2021/07/17 06:01:12;;;;;;;3.38;2.42;;;;;;;26.22;57.35;101384.50;5084326;28;20196;-70
2021/07/17 06:03:42;;;;;;;3.67;2.90;;;;;;;26.27;56.85;101384.78;5082625;28;20201;-70
2021/07/17 06:06:11;;;;;;;3.25;2.40;;;;;;;26.42;57.68;101384.81;5087772;28;20669;-70
2021/07/17 06:08:40;;;;;;;8.55;2.88;;;;;;;26.59;56.23;101386.28;5081690;28;20200;-70
2021/07/17 06:11:08;;;;;;;4.38;2.90;;;;;;;26.65;56.07;101379.19;5083375;28;20195;-71
2021/07/17 06:13:36;;;;;;;4.20;2.58;;;;;;;26.72;56.12;101377.34;5089491;28;20250;-70
2021/07/17 06:16:06;;;;;;;6.20;2.88;;;;;;;26.83;55.35;101382.34;5084577;28;20207;-71
2021/07/17 06:18:34;;;;;;;6.38;2.65;;;;;;;26.75;55.38;101374.19;5087592;28;20248;-70
2021/07/17 06:21:02;;;;;;;5.13;2.53;;;;;;;27.10;55.29;101371.63;5089926;28;20228;-71
2021/07/17 06:23:30;;;;;;;7.78;2.63;;;;;;;27.38;54.42;101375.31;5085842;28;20216;-71
2021/07/17 06:25:59;;;;;;;4.00;2.40;;;;;;;27.43;54.01;101371.94;5087952;28;20192;-71
2021/07/17 06:28:27;;;;;;;5.65;2.95;;;;;;;27.68;53.51;101370.47;5083092;28;20201;-67
2021/07/17 06:30:55;;;;;;;3.67;2.58;;;;;;;28.09;53.03;101372.44;5087296;28;20566;-67
2021/07/17 06:33:25;;;;;;;4.07;2.95;;;;;;;28.24;52.64;101364.03;5086672;28;20201;-67
2021/07/17 06:35:53;;;;;;;3.17;2.60;;;;;;;28.33;52.71;101366.47;5086116;28;20189;-71
2021/07/17 06:38:21;;;;;;;4.35;2.70;;;;;;;28.22;52.02;101357.88;5087578;28;20212;-70
2021/07/17 06:40:50;;;;;;;6.25;2.55;;;;;;;28.27;52.46;101352.63;5078920;28;20197;-70
2021/07/17 06:43:18;;;;;;;3.20;2.20;;;;;;;28.72;51.47;101363.00;5080425;28;20204;-71
2021/07/17 06:45:46;;;;;;;4.78;2.22;;;;;;;29.03;51.59;101359.69;5090938;28;20507;-71
2021/07/17 06:48:14;;;;;;;5.38;2.92;;;;;;;28.90;51.50;101358.81;5087905;28;20676;-67
2021/07/17 06:50:44;;;;;;;2.75;2.33;;;;;;;29.31;51.11;101361.44;5079749;28;20197;-71
2021/07/17 06:53:12;;;;;;;5.82;2.95;;;;;;;29.44;50.31;101360.59;5075979;28;20321;-70
2021/07/17 06:55:40;;;;;;;6.55;2.50;;;;;;;29.46;50.76;101358.50;5082104;28;20212;-70
2021/07/17 06:58:09;;;;;;;5.90;2.78;;;;;;;29.37;50.35;101355.88;5084095;28;20307;-70
2021/07/17 07:00:37;;;;;;;3.40;2.60;;;;;;;29.26;50.41;101353.75;5084172;28;20213;-71
2021/07/17 07:03:06;;;;;;;4.40;3.20;;;;;;;29.62;49.93;101341.44;5090945;28;20738;-71
2021/07/17 07:05:34;;;;;;;5.57;3.10;;;;;;;30.05;48.89;101349.28;5081593;28;20708;-71
2021/07/17 07:08:04;;;;;;;8.25;2.80;;;;;;;30.42;48.67;101344.88;5088354;28;20293;-67
2021/07/17 07:10:33;;;;;;;3.47;2.90;;;;;;;30.74;47.55;101345.81;5080394;28;20601;-71
2021/07/17 07:13:09;;;;;;;4.90;3.05;;;;;;;30.91;47.06;101358.09;5087302;28;20235;-71
2021/07/17 07:15:37;;;;;;;3.65;2.88;;;;;;;31.26;47.14;101346.59;5088454;28;20222;-71
2021/07/17 07:18:06;;;;;;;4.78;3.03;;;;;;;31.34;46.12;101333.25;5085793;28;20220;-71
2021/07/17 07:20:34;;;;;;;3.90;2.75;;;;;;;31.60;45.74;101318.28;5088866;28;20239;-68
2021/07/17 07:23:04;;;;;;;4.28;3.10;;;;;;;31.60;45.60;101334.09;5087269;28;20205;-71
2021/07/17 07:25:33;;;;;;;7.35;3.17;;;;;;;31.63;45.74;101284.50;5084122;28;20201;-67
2021/07/17 07:28:02;;;;;;;6.40;3.60;;;;;;;31.78;45.64;101323.88;5090120;28;20196;-67
2021/07/17 07:30:30;;;;;;;3.28;2.92;;;;;;;31.73;45.59;101312.63;5090688;28;20847;-68
2021/07/17 07:32:58;;;;;;;4.35;3.45;;;;;;;31.93;45.48;101319.91;5078055;28;20204;-70
2021/07/17 07:35:27;;;;;;;5.53;3.80;;;;;;;32.12;44.37;101328.00;5074184;28;20545;-70
2021/07/17 07:37:58;;;;;;;3.60;2.92;;;;;;;32.40;43.58;101313.56;5086722;28;20967;-70
2021/07/17 07:40:30;;;;;;;8.73;4.30;;;;;;;32.76;42.74;101333.19;5075822;28;20430;-70
2021/07/17 07:42:58;;;;;;;9.90;4.85;;;;;;;32.71;43.06;101325.56;5081442;28;20220;-71
2021/07/17 07:45:26;;;;;;;24.63;3.95;;;;;;;32.79;43.58;101321.66;5080838;28;20228;-71
2021/07/17 07:47:56;;;;;;;6.82;3.83;;;;;;;32.37;44.00;101327.09;5084005;28;20197;-69
2021/07/17 07:50:25;;;;;;;5.15;3.53;;;;;;;32.35;43.81;101321.75;5084838;28;20194;-67
2021/07/17 07:52:53;;;;;;;6.10;3.75;;;;;;;32.42;44.17;101324.44;5083993;28;20263;-68
2021/07/17 07:55:21;;;;;;;8.68;4.10;;;;;;;32.10;44.27;101307.06;5085100;28;20197;-69
2021/07/17 07:57:52;;;;;;;4.47;3.75;;;;;;;31.91;44.93;101308.16;5096028;28;20323;-69
2021/07/17 08:00:21;;;;;;;5.53;3.80;;;;;;;32.06;44.64;101289.16;5085664;28;20200;-69
2021/07/17 08:02:53;;;;;;;5.82;3.97;;;;;;;32.16;44.67;101305.31;5089920;28;20211;-70
2021/07/17 08:05:22;;;;;;;7.93;4.43;;;;;;;32.22;44.99;101310.78;5083589;28;20643;-68
2021/07/17 08:07:51;;;;;;;8.77;4.25;;;;;;;31.57;45.86;101290.97;5085354;28;20200;-68
2021/07/17 08:10:19;;;;;;;8.10;4.72;;;;;;;31.76;45.84;101309.38;5088111;28;20259;-68
2021/07/17 08:12:47;;;;;;;5.32;4.05;;;;;;;31.81;45.91;101303.97;5084720;28;20676;-67
2021/07/17 08:15:17;;;;;;;5.47;4.18;;;;;;;31.76;46.82;101302.97;5079619;28;20223;-68
2021/07/17 08:17:45;;;;;;;8.15;5.22;;;;;;;31.92;46.12;101301.53;5083579;28;20204;-68
2021/07/17 08:20:14;;;;;;;7.13;5.38;;;;;;;32.32;45.10;101297.22;5088002;28;20684;-69
2021/07/17 08:22:42;;;;;;;6.30;4.60;;;;;;;32.67;44.95;101302.06;5102763;28;20200;-68
2021/07/17 08:25:11;;;;;;;9.75;5.35;;;;;;;32.74;44.64;101305.59;5088621;28;20700;-68
2021/07/17 08:27:40;;;;;;;7.72;5.00;;;;;;;32.48;44.91;101292.94;5085225;28;20196;-69
2021/07/17 08:30:11;;;;;;;8.05;5.03;;;;;;;32.43;45.49;101285.28;5085430;28;20197;-68
2021/07/17 08:32:56;;;;;;;6.40;4.50;;;;;;;32.48;45.55;101270.69;5089229;28;20266;-68
2021/07/17 08:35:25;;;;;;;7.05;4.68;;;;;;;31.79;47.34;101261.69;5082523;28;20205;-68
2021/07/17 08:37:53;;;;;;;6.00;4.53;;;;;;;32.48;46.06;101280.97;5081178;28;20202;-69
2021/07/17 08:40:22;;;;;;;7.20;4.88;;;;;;;32.57;45.70;101263.69;5083188;28;20204;-69
2021/07/17 08:42:51;;;;;;;5.60;4.20;;;;;;;32.68;45.51;101289.84;5086606;28;20200;-69
2021/07/17 08:45:21;;;;;;;6.60;4.80;;;;;;;32.22;46.56;101249.63;5091172;28;20609;-70
2021/07/17 08:47:51;;;;;;;5.95;4.35;;;;;;;32.38;46.09;101282.34;5086772;28;20534;-69
2021/07/17 08:50:23;;;;;;;6.22;4.82;;;;;;;32.35;46.59;101282.81;5089119;28;20200;-69
2021/07/17 08:52:53;;;;;;;6.95;4.70;;;;;;;31.75;47.27;101249.34;5090023;28;20583;-67
2021/07/17 08:55:23;;;;;;;6.57;4.65;;;;;;;32.18;46.43;101273.41;5089174;28;20286;-68
2021/07/17 08:57:52;;;;;;;6.55;4.97;;;;;;;31.70;47.15;101262.19;5089534;28;20181;-68
2021/07/17 09:00:23;;;;;;;7.07;5.05;;;;;;;31.88;47.51;101272.50;5090722;28;20208;-68
2021/07/17 09:02:54;;;;;;;7.07;4.93;;;;;;;32.00;47.59;101271.50;5085694;28;20856;-68
2021/07/17 09:05:27;;;;;;;6.88;4.97;;;;;;;32.34;47.28;101264.44;5089138;28;20193;-68
2021/07/17 09:07:56;;;;;;;6.88;4.93;;;;;;;31.95;47.19;101271.34;5091228;28;20200;-67
2021/07/17 09:10:34;;;;;;;6.63;4.80;;;;;;;32.13;46.98;101262.13;5081278;28;20581;-68
2021/07/17 09:13:15;;;;;;;7.32;4.93;;;;;;;32.42;46.14;101250.19;5082535;28;20246;-68
2021/07/17 09:15:54;;;;;;;8.15;5.00;;;;;;;32.46;46.28;101260.88;5092151;28;20661;-67
2021/07/17 09:18:27;;;;;;;8.18;5.05;;;;;;;32.05;46.92;101216.03;5085860;28;20216;-67
2021/07/17 09:21:00;;;;;;;7.20;4.78;;;;;;;32.67;45.27;101263.97;5080823;28;20251;-67
2021/07/17 09:23:31;;;;;;;7.45;4.85;;;;;;;32.13;46.29;101237.09;5086690;28;20419;-68
2021/07/17 09:26:01;;;;;;;5.70;4.93;;;;;;;32.32;46.46;101243.53;5089594;28;20304;-69
2021/07/17 09:28:31;;;;;;;6.90;5.00;;;;;;;32.39;46.54;101250.66;5085325;28;20566;-67
2021/07/17 09:31:01;;;;;;;6.90;4.40;;;;;;;32.60;45.95;101251.25;5082049;28;20205;-67
2021/07/17 09:33:30;;;;;;;8.27;5.05;;;;;;;32.81;45.43;101247.97;5081406;28;20284;-67
2021/07/17 09:36:00;;;;;;;7.93;5.07;;;;;;;32.50;45.88;101246.25;5087538;28;20207;-69
2021/07/17 09:38:32;;;;;;;7.53;5.18;;;;;;;32.05;46.40;101234.66;5083890;28;20197;-69
2021/07/17 09:41:05;;;;;;;8.45;4.88;;;;;;;32.41;46.00;101245.72;5084756;28;20657;-67
2021/07/17 09:43:36;;;;;;;6.15;4.75;;;;;;;32.53;45.83;101242.16;5082000;28;20617;-67
2021/07/17 09:46:22;;;;;;;8.20;4.82;;;;;;;32.32;45.57;101232.38;5086495;28;20197;-67
2021/07/17 09:48:53;;;;;;;6.10;4.65;;;;;;;32.64;44.78;101232.97;5082136;28;20660;-67
2021/07/17 09:51:25;;;;;;;6.20;4.57;;;;;;;32.13;43.33;101200.97;5075975;28;20607;-68
2021/07/17 09:53:54;;;;;;;5.45;4.28;;;;;;;32.15;45.24;101204.38;5075065;28;20207;-67
2021/07/17 09:56:24;;;;;;;5.72;4.25;;;;;;;32.60;45.01;101220.63;5076897;28;20196;-74
2021/07/17 09:58:54;;;;;;;7.28;4.30;;;;;;;33.02;44.02;101227.88;5087767;28;20580;-70
2021/07/17 10:01:25;;;;;;;4.93;4.13;;;;;;;33.48;42.61;101220.66;5086838;28;20200;-69
2021/07/17 10:03:59;;;;;;;5.95;4.15;;;;;;;33.53;42.70;101212.41;5076746;28;20227;-66
2021/07/17 10:06:40;;;;;;;6.97;4.63;;;;;;;33.58;41.52;101209.72;5082174;28;20212;-67
2021/07/17 10:09:23;;;;;;;4.88;3.88;;;;;;;33.74;41.72;101207.28;5078049;28;20592;-66
2021/07/17 10:11:58;;;;;;;5.15;4.40;;;;;;;33.28;40.72;101192.28;5076223;28;20185;-68
2021/07/17 10:14:31;;;;;;;4.75;4.00;;;;;;;33.43;40.97;101181.56;5084424;28;20192;-67
2021/07/17 10:17:05;;;;;;;4.30;3.75;;;;;;;33.38;41.34;101202.88;5084102;28;20201;-65
2021/07/17 10:19:34;;;;;;;4.93;4.00;;;;;;;33.26;41.74;101195.31;5084246;28;20241;-67
2021/07/17 10:22:04;;;;;;;8.10;3.90;;;;;;;33.26;40.70;101194.47;5079443;28;20570;-66
2021/07/17 10:24:34;;;;;;;4.80;3.60;;;;;;;33.20;41.46;101199.09;5077764;28;20198;-67
2021/07/17 10:27:02;;;;;;;5.45;3.85;;;;;;;33.32;41.68;101202.72;5081088;28;20435;-66
2021/07/17 10:29:31;;;;;;;4.95;3.72;;;;;;;33.40;41.25;101195.13;5083103;28;20201;-67
2021/07/17 10:32:00;;;;;;;4.88;4.05;;;;;;;33.39;41.42;101177.56;5086942;28;20204;-67
2021/07/17 10:34:29;;;;;;;8.50;3.70;;;;;;;33.54;41.13;101194.59;5081185;28;20257;-67
2021/07/17 10:37:03;;;;;;;3.83;3.45;;;;;;;33.64;41.14;101196.75;5080803;28;20682;-65
2021/07/17 10:39:35;;;;;;;6.00;3.75;;;;;;;33.43;41.12;101162.03;5076310;28;20224;-67
2021/07/17 10:42:17;;;;;;;4.50;3.72;;;;;;;33.69;40.11;101190.47;5085271;28;20204;-67
2021/07/17 10:44:48;;;;;;;6.55;3.90;;;;;;;33.61;40.82;101195.31;5087145;28;21534;-66
2021/07/17 10:47:17;;;;;;;5.88;3.97;;;;;;;33.61;40.43;101175.81;5088562;28;20191;-65
2021/07/17 10:49:47;;;;;;;6.03;3.70;;;;;;;33.74;40.74;101187.78;5086645;28;20195;-65
2021/07/17 10:52:16;;;;;;;5.45;3.90;;;;;;;33.70;40.17;101178.22;5084477;28;20204;-66
2021/07/17 10:54:45;;;;;;;4.32;3.70;;;;;;;33.73;40.73;101177.72;5088523;28;20200;-67
2021/07/17 10:57:27;;;;;;;4.82;3.97;;;;;;;33.81;40.63;101168.97;5085796;28;20196;-66
2021/07/17 10:59:55;;;;;;;5.68;4.50;;;;;;;33.87;40.94;101168.84;5085734;28;20568;-66
2021/07/17 11:02:24;;;;;;;5.43;4.20;;;;;;;33.74;40.54;101173.84;5087742;28;20560;-66
2021/07/17 11:04:58;;;;;;;4.53;4.00;;;;;;;33.74;40.86;101168.28;5088791;28;20681;-66
2021/07/17 11:07:37;;;;;;;5.85;4.10;;;;;;;33.67;39.76;101161.97;5085214;28;20220;-67
2021/07/17 11:10:40;;;;;;;5.00;4.15;;;;;;;33.69;40.36;101152.28;5077444;28;20531;-67
2021/07/17 11:13:08;;;;;;;5.32;3.75;;;;;;;33.62;40.64;101152.41;5077998;28;20217;-66
2021/07/17 11:15:51;;;;;;;6.97;4.13;;;;;;;33.74;40.43;101162.69;5080220;28;20279;-67
2021/07/17 11:18:30;;;;;;;4.18;3.78;;;;;;;33.82;40.83;101149.22;5084445;28;20614;-67
2021/07/17 11:20:59;;;;;;;5.28;4.20;;;;;;;33.81;40.71;101146.66;5076353;28;20244;-67
2021/07/17 11:23:44;;;;;;;4.15;3.67;;;;;;;33.63;41.29;101148.53;5082552;28;20270;-66
2021/07/17 11:26:21;;;;;;;5.28;4.25;;;;;;;33.47;40.98;101152.09;5080695;28;20697;-66
2021/07/17 11:29:03;;;;;;;4.53;3.70;;;;;;;33.38;40.83;101139.66;5082980;28;20204;-65
2021/07/17 11:31:51;;;;;;;4.95;3.97;;;;;;;33.25;40.42;101137.09;5082685;28;20199;-65
2021/07/17 11:34:35;;;;;;;4.55;3.92;;;;;;;33.28;40.59;101128.22;5081515;28;20656;-65
2021/07/17 11:37:10;;;;;;;5.78;3.90;;;;;;;33.47;41.32;101128.97;5083126;28;20207;-67